Time;durP1;ratioP1;P1;durP2;ratioP2;P2;SDS_P1;SDS_P2;PMS_P1;PMS_P2;Temp;Humidity;BMP_temperature;BMP_pressure;BME280_temperature;BME280_humidity;BME280_pressure;Samples;Min_cycle;Max_cycle;Signal;HPM_P1;HPM_P2
2022/05/17 00:01:01;;;;;;;;;;;;;;;7.87;63.11;101937.52;1747033;81;20368;-86
2022/05/17 00:03:27;;;;;;;;;;;;;;;7.84;63.15;101939.06;1746992;82;20876;-86
2022/05/17 00:05:54;;;;;;;;;;;;;;;7.83;63.12;101949.97;1746508;82;22546;-86
2022/05/17 00:08:20;;;;;;;;;;;;;;;7.78;63.12;101944.45;1746522;80;20981;-86
2022/05/17 00:10:47;;;;;;;;;;;;;;;7.81;63.10;101951.60;1734264;80;20789;-86
2022/05/17 00:13:13;;;;;;;;;;;;;;;7.79;63.05;101945.37;1731828;82;20394;-86
2022/05/17 00:15:42;;;;;;;;;;;;;;;7.77;63.01;101947.91;1716409;83;20613;-86
2022/05/17 00:18:11;;;;;;;;;;;;;;;7.78;62.98;101944.45;1672881;84;21772;-85
2022/05/17 00:20:37;;;;;;;;;;;;;;;7.77;63.00;101949.22;1697132;82;20216;-86
2022/05/17 00:23:04;;;;;;;;;;;;;;;7.77;62.98;101944.36;1679931;84;20577;-86
2022/05/17 00:25:31;;;;;;;;;;;;;;;7.76;63.02;101948.70;1671975;84;20684;-86
2022/05/17 00:27:57;;;;;;;;;;;;;;;7.74;63.10;101947.72;1737187;82;20241;-87
2022/05/17 00:30:24;;;;;;;;;;;;;;;7.72;63.12;101945.42;1737528;82;21758;-86
2022/05/17 00:32:53;;;;;;;;;;;;;;;7.70;63.35;101948.80;1737425;82;20230;-86
2022/05/17 00:35:21;;;;;;;;;;;;;;;7.68;63.53;101946.50;1724940;82;20776;-87
2022/05/17 00:37:47;;;;;;;;;;;;;;;7.65;63.78;101944.59;1699489;83;20399;-86
2022/05/17 00:40:14;;;;;;;;;;;;;;;7.64;64.13;101949.35;1689611;84;20225;-86
2022/05/17 00:42:43;;;;;;;;;;;;;;;7.59;64.40;101950.39;1707603;83;21788;-86
2022/05/17 00:45:09;;;;;;;;;;;;;;;7.56;64.75;101945.00;1661609;84;21038;-87
2022/05/17 00:47:49;;;;;;;;;;;;;;;7.55;64.97;101947.10;1661805;85;20217;-87
2022/05/17 00:50:30;;;;;;;;;;;;;;;7.52;65.22;101946.03;1682565;85;20390;-87
2022/05/17 00:52:59;;;;;;;;;;;;;;;7.50;65.53;101952.48;1679595;85;20214;-85
2022/05/17 00:55:41;;;;;;;;;;;;;;;7.49;65.63;101945.84;1663327;84;21719;-86
2022/05/17 00:58:10;;;;;;;;;;;;;;;7.47;65.83;101943.16;1682535;85;20232;-87
2022/05/17 01:03:27;;;;;;;;;;;;;;;7.46;65.99;101940.45;1738089;82;20383;-87
2022/05/17 01:05:54;;;;;;;;;;;;;;;7.43;66.10;101937.23;1718290;82;20613;-88
2022/05/17 01:08:21;;;;;;;;;;;;;;;7.43;66.22;101931.98;1717857;83;21791;-86
2022/05/17 01:10:47;;;;;;;;;;;;;;;7.43;66.32;101935.91;1689432;83;20214;-86
2022/05/17 01:15:58;;;;;;;;;;;;;;;7.44;66.45;101940.36;1699613;83;20391;-87
2022/05/17 01:18:25;;;;;;;;;;;;;;;7.46;66.44;101939.14;1698234;83;20218;-86
2022/05/17 01:20:51;;;;;;;;;;;;;;;7.44;66.46;101933.81;1685507;83;21995;-86
2022/05/17 01:23:18;;;;;;;;;;;;;;;7.43;66.46;101935.91;1688807;83;20888;-86
2022/05/17 01:25:44;;;;;;;;;;;;;;;7.42;66.55;101930.62;1702817;83;20217;-86
2022/05/17 01:28:18;;;;;;;;;;;;;;;7.40;66.55;101931.84;1702844;83;20375;-86
2022/05/17 01:30:44;;;;;;;;;;;;;;;7.38;66.58;101928.23;1723232;83;20208;-88
2022/05/17 01:33:15;;;;;;;;;;;;;;;7.35;66.64;101925.01;1723253;83;21739;-85
2022/05/17 01:35:41;;;;;;;;;;;;;;;7.32;66.59;101925.23;1723222;83;20187;-86
2022/05/17 01:38:08;;;;;;;;;;;;;;;7.27;66.68;101931.54;1731658;82;20576;-86
2022/05/17 01:40:34;;;;;;;;;;;;;;;7.24;66.72;101930.04;1726612;82;20484;-87
2022/05/17 01:43:03;;;;;;;;;;;;;;;7.20;66.81;101926.76;1729833;82;20377;-86
2022/05/17 01:45:29;;;;;;;;;;;;;;;7.16;66.86;101930.91;1731566;81;21824;-87
2022/05/17 01:47:56;;;;;;;;;;;;;;;7.12;66.99;101930.24;1709881;81;21014;-86
2022/05/17 01:50:23;;;;;;;;;;;;;;;7.08;67.07;101932.20;1710340;82;20227;-87
2022/05/17 01:52:49;;;;;;;;;;;;;;;7.05;67.12;101940.28;1706193;82;21317;-86
2022/05/17 01:55:16;;;;;;;;;;;;;;;7.00;67.26;101938.68;1718969;82;20953;-85
2022/05/17 01:57:42;;;;;;;;;;;;;;;6.95;67.34;101938.42;1731512;82;21770;-86
2022/05/17 02:00:11;;;;;;;;;;;;;;;6.91;67.50;101940.38;1726762;82;21208;-86
2022/05/17 02:02:37;;;;;;;;;;;;;;;6.89;67.63;101941.07;1721015;82;20817;-86
2022/05/17 02:05:04;;;;;;;;;;;;;;;6.87;67.79;101938.77;1730678;82;21131;-86
2022/05/17 02:07:31;;;;;;;;;;;;;;;6.86;67.85;101942.22;1732060;82;20202;-87
2022/05/17 02:09:58;;;;;;;;;;;;;;;6.85;67.95;101937.78;1731644;82;21866;-87
2022/05/17 02:12:24;;;;;;;;;;;;;;;6.83;68.02;101940.30;1700981;82;20759;-86
2022/05/17 02:14:51;;;;;;;;;;;;;;;6.83;68.10;101936.80;1707291;82;20838;-87
2022/05/17 02:17:19;;;;;;;;;;;;;;;6.84;68.16;101947.78;1728720;82;20198;-86
2022/05/17 02:19:45;;;;;;;;;;;;;;;6.84;68.21;101949.98;1724001;82;20243;-86
2022/05/17 02:22:11;;;;;;;;;;;;;;;6.84;68.27;101939.51;1703602;82;21903;-86
2022/05/17 02:24:38;;;;;;;;;;;;;;;6.84;68.28;101942.55;1689911;83;20221;-86
2022/05/17 02:27:05;;;;;;;;;;;;;;;6.86;68.29;101942.22;1705470;83;20191;-86
2022/05/17 02:29:34;;;;;;;;;;;;;;;6.86;68.28;101938.30;1694444;82;20366;-86
2022/05/17 02:32:03;;;;;;;;;;;;;;;6.86;68.23;101940.50;1713943;83;20233;-87
2022/05/17 02:34:31;;;;;;;;;;;;;;;6.87;68.22;101944.02;1718114;83;21759;-87
2022/05/17 02:37:04;;;;;;;;;;;;;;;6.87;68.14;101940.09;1718458;83;20228;-88
2022/05/17 02:39:31;;;;;;;;;;;;;;;6.86;68.16;101944.84;1716939;83;20203;-87
2022/05/17 02:41:57;;;;;;;;;;;;;;;6.86;68.13;101942.22;1711774;83;20376;-87
2022/05/17 02:44:24;;;;;;;;;;;;;;;6.85;68.13;101943.95;1701120;83;20234;-87
2022/05/17 02:46:51;;;;;;;;;;;;;;;6.85;68.15;101947.88;1718566;83;21339;-87
2022/05/17 02:49:17;;;;;;;;;;;;;;;6.85;68.22;101948.25;1718681;83;20243;-87
2022/05/17 02:51:43;;;;;;;;;;;;;;;6.84;68.28;101949.98;1710346;83;20252;-87
2022/05/17 02:54:10;;;;;;;;;;;;;;;6.83;68.35;101952.08;1710009;83;20433;-88
2022/05/17 02:56:37;;;;;;;;;;;;;;;6.83;68.39;101952.08;1697829;83;20257;-88
2022/05/17 02:59:03;;;;;;;;;;;;;;;6.81;68.48;101952.02;1710322;83;21618;-88
2022/05/17 03:01:30;;;;;;;;;;;;;;;6.82;68.58;101956.84;1718387;83;20204;-88
2022/05/17 03:04:00;;;;;;;;;;;;;;;6.82;68.60;101951.61;1702416;83;20226;-87
2022/05/17 03:06:28;;;;;;;;;;;;;;;6.84;68.67;101960.45;1718598;82;20459;-87
2022/05/17 03:08:53;;;;;;;;;;;;;;;6.83;68.75;101953.39;1702751;83;20229;-87
2022/05/17 03:11:19;;;;;;;;;;;;;;;6.84;68.81;101959.14;1708999;83;21979;-88
2022/05/17 03:13:48;;;;;;;;;;;;;;;6.85;68.84;101960.03;1694155;83;20643;-88
2022/05/17 03:16:17;;;;;;;;;;;;;;;6.88;68.89;101961.53;1720552;83;20725;-87
2022/05/17 03:18:46;;;;;;;;;;;;;;;6.94;68.98;101957.55;1697499;83;20964;-87
2022/05/17 03:21:17;;;;;;;;;;;;;;;7.04;69.05;101956.78;1677458;83;20199;-87
2022/05/17 03:23:45;;;;;;;;;;;;;;;7.14;68.98;101963.97;1709497;83;23119;-87
2022/05/17 03:26:11;;;;;;;;;;;;;;;7.22;68.82;101959.17;1712858;83;20214;-87
2022/05/17 03:28:37;;;;;;;;;;;;;;;7.30;68.74;101963.53;1708768;83;20204;-86
2022/05/17 03:31:08;;;;;;;;;;;;;;;7.38;68.61;101962.28;1695882;83;20579;-86
2022/05/17 03:33:39;;;;;;;;;;;;;;;7.48;68.57;101959.77;1697929;83;20221;-88
2022/05/17 03:36:12;;;;;;;;;;;;;;;7.57;68.38;101960.30;1697410;83;20379;-88
2022/05/17 03:38:39;;;;;;;;;;;;;;;7.65;68.22;101960.73;1704777;81;20121;-88
2022/05/17 03:41:06;;;;;;;;;;;;;;;7.74;68.13;101963.45;1698049;82;20259;-86
2022/05/17 03:43:32;;;;;;;;;;;;;;;7.83;67.98;101966.08;1717718;82;20342;-88
2022/05/17 03:45:59;;;;;;;;;;;;;;;7.87;67.85;101961.11;1713901;83;20235;-86
2022/05/17 03:48:26;;;;;;;;;;;;;;;7.91;67.69;101964.39;1715462;83;22568;-87
2022/05/17 03:50:52;;;;;;;;;;;;;;;7.97;67.66;101964.71;1713619;83;20207;-88
2022/05/17 03:53:19;;;;;;;;;;;;;;;8.04;67.51;101963.34;1706131;83;20235;-87
2022/05/17 03:55:46;;;;;;;;;;;;;;;8.10;67.37;101970.22;1676639;84;20369;-87
2022/05/17 03:58:12;;;;;;;;;;;;;;;8.26;67.50;101969.73;1700122;83;20219;-85
2022/05/17 04:00:39;;;;;;;;;;;;;;;8.38;67.17;101974.34;1714318;83;21744;-84
2022/05/17 04:03:05;;;;;;;;;;;;;;;8.69;67.17;101975.60;1697457;83;20856;-84
2022/05/17 04:05:36;;;;;;;;;;;;;;;8.82;66.76;101971.90;1704827;83;20219;-85
2022/05/17 04:08:06;;;;;;;;;;;;;;;9.09;66.68;101979.37;1698459;83;20254;-85
2022/05/17 04:10:34;;;;;;;;;;;;;;;9.21;66.22;101974.72;1697400;83;20830;-86
2022/05/17 04:13:01;;;;;;;;;;;;;;;9.49;66.34;101973.47;1709383;83;21808;-85
2022/05/17 04:15:27;;;;;;;;;;;;;;;10.14;66.81;101969.56;1709986;83;20184;-85
2022/05/17 04:17:54;;;;;;;;;;;;;;;11.57;66.49;101968.28;1709797;83;20884;-86
2022/05/17 04:20:21;;;;;;;;;;;;;;;12.14;65.33;101970.53;1713275;83;20492;-86
2022/05/17 04:22:49;;;;;;;;;;;;;;;14.46;66.71;101958.44;1695811;82;20475;-87
2022/05/17 04:25:17;;;;;;;;;;;;;;;16.30;64.54;101959.47;1675383;84;21790;-85
2022/05/17 04:27:46;;;;;;;;;;;;;;;18.16;61.27;101953.78;1671137;84;20314;-86
2022/05/17 04:30:12;;;;;;;;;;;;;;;19.90;59.99;101951.45;1682654;84;20234;-85
2022/05/17 04:32:43;;;;;;;;;;;;;;;21.92;57.50;101944.66;1682195;83;20420;-84
2022/05/17 04:35:14;;;;;;;;;;;;;;;23.49;54.33;101951.76;1683938;84;20741;-85
2022/05/17 04:38:06;;;;;;;;;;;;;;;23.98;51.50;101953.06;1698078;84;21755;-86
2022/05/17 04:41:08;;;;;;;;;;;;;;;24.78;50.40;101949.82;1685209;84;20223;-86
2022/05/17 04:43:38;;;;;;;;;;;;;;;25.85;48.32;101963.74;1633886;87;20232;-83
2022/05/17 04:46:15;;;;;;;;;;;;;;;26.76;46.35;101965.44;1686315;84;20904;-85
2022/05/17 04:48:45;;;;;;;;;;;;;;;27.20;45.10;101961.22;1657381;84;20266;-85
2022/05/17 04:51:16;;;;;;;;;;;;;;;28.46;43.60;101965.44;1695799;83;20209;-87
2022/05/17 04:53:48;;;;;;;;;;;;;;;28.78;41.72;101964.94;1701843;83;20241;-85
2022/05/17 04:56:14;;;;;;;;;;;;;;;29.77;41.03;101958.47;1700374;83;20260;-86
2022/05/17 04:58:40;;;;;;;;;;;;;;;30.76;39.88;101965.08;1666554;84;20542;-83
2022/05/17 05:01:07;;;;;;;;;;;;;;;31.28;37.81;101955.75;1690557;84;20233;-83
2022/05/17 05:03:33;;;;;;;;;;;;;;;31.87;37.42;101959.06;1702077;84;21916;-83
2022/05/17 05:05:59;;;;;;;;;;;;;;;32.44;35.21;101964.60;1698394;84;20196;-83
2022/05/17 05:08:26;;;;;;;;;;;;;;;31.53;33.72;101967.38;1682623;84;20572;-83
2022/05/17 05:10:53;;;;;;;;;;;;;;;30.22;33.26;101969.03;1674545;84;20431;-83
2022/05/17 05:13:20;;;;;;;;;;;;;;;29.73;33.68;101966.31;1682413;84;20512;-84
2022/05/17 05:15:46;;;;;;;;;;;;;;;28.35;33.03;101981.61;1700301;82;22796;-84
2022/05/17 05:18:13;;;;;;;;;;;;;;;28.43;33.93;101980.89;1695262;83;21035;-84
2022/05/17 05:20:40;;;;;;;;;;;;;;;29.07;32.97;101971.22;1698718;83;20196;-84
2022/05/17 05:23:07;;;;;;;;;;;;;;;29.60;32.96;101968.98;1695387;82;20413;-84
2022/05/17 05:25:34;;;;;;;;;;;;;;;29.92;32.11;101971.04;1698697;83;20196;-84
2022/05/17 05:28:01;;;;;;;;;;;;;;;30.29;31.73;101968.30;1699419;83;23079;-86
2022/05/17 05:30:29;;;;;;;;;;;;;;;30.50;31.02;101962.53;1692424;84;21438;-84
2022/05/17 05:32:57;;;;;;;;;;;;;;;30.60;30.44;101966.19;1649359;85;20289;-84
2022/05/17 05:35:25;;;;;;;;;;;;;;;29.52;29.57;101964.31;1692190;84;20295;-84
2022/05/17 05:37:53;;;;;;;;;;;;;;;27.42;29.43;101972.42;1691314;84;20537;-83
2022/05/17 05:40:19;;;;;;;;;;;;;;;25.20;30.18;101979.67;1685210;83;21870;-84
2022/05/17 05:42:48;;;;;;;;;;;;;;;23.33;31.24;101982.38;1697855;84;20228;-84
2022/05/17 05:45:14;;;;;;;;;;;;;;;21.88;32.29;101972.80;1686627;84;20219;-84
2022/05/17 05:47:40;;;;;;;;;;;;;;;20.90;32.75;101983.06;1686451;83;20629;-84
2022/05/17 05:50:07;;;;;;;;;;;;;;;19.71;33.33;101998.51;1702400;83;20573;-84
2022/05/17 05:52:35;;;;;;;;;;;;;;;18.55;34.35;101992.48;1700290;83;21760;-84
2022/05/17 05:55:03;;;;;;;;;;;;;;;17.86;35.18;101997.77;1691927;83;20547;-84
2022/05/17 05:57:31;;;;;;;;;;;;;;;17.28;35.91;101996.36;1707649;83;20239;-84
2022/05/17 05:59:59;;;;;;;;;;;;;;;17.01;36.87;102002.10;1709682;83;21511;-85
2022/05/17 06:02:25;;;;;;;;;;;;;;;16.76;37.47;102006.03;1699570;84;20279;-84
2022/05/17 06:04:51;;;;;;;;;;;;;;;16.67;38.05;102004.08;1677924;84;22885;-85
2022/05/17 06:07:18;;;;;;;;;;;;;;;16.59;38.37;102003.45;1664797;84;20577;-85
2022/05/17 06:09:45;;;;;;;;;;;;;;;16.45;38.64;102005.39;1670683;84;20560;-85
2022/05/17 06:12:12;;;;;;;;;;;;;;;16.47;39.18;102002.34;1687176;83;21223;-85
2022/05/17 06:14:38;;;;;;;;;;;;;;;16.43;38.98;102011.12;1669126;84;20238;-85
2022/05/17 06:17:05;;;;;;;;;;;;;;;16.39;38.96;102007.94;1689054;84;21902;-84
2022/05/17 06:19:33;;;;;;;;;;;;;;;16.28;38.81;102006.81;1681375;84;20585;-85
2022/05/17 06:21:59;;;;;;;;;;;;;;;16.26;39.09;102008.54;1673473;83;20228;-84
2022/05/17 06:24:27;;;;;;;;;;;;;;;16.22;39.04;102005.36;1689086;84;20601;-85
2022/05/17 06:26:54;;;;;;;;;;;;;;;16.21;39.28;102015.06;1657345;84;20256;-84
2022/05/17 06:29:21;;;;;;;;;;;;;;;16.38;39.47;102010.11;1692828;83;22539;-85
2022/05/17 06:31:47;;;;;;;;;;;;;;;16.43;38.95;101992.95;1682344;84;20300;-85
2022/05/17 06:34:14;;;;;;;;;;;;;;;16.48;38.64;101993.95;1684161;84;20969;-85
2022/05/17 06:36:40;;;;;;;;;;;;;;;16.40;38.29;102011.04;1674467;84;21561;-85
2022/05/17 06:39:08;;;;;;;;;;;;;;;16.30;38.13;102013.05;1676545;84;20195;-84
2022/05/17 06:41:35;;;;;;;;;;;;;;;16.17;38.15;102007.89;1688221;84;21666;-85
2022/05/17 06:44:02;;;;;;;;;;;;;;;16.20;38.34;102013.29;1708327;84;20239;-84
2022/05/17 06:46:28;;;;;;;;;;;;;;;16.21;38.50;102013.73;1707151;83;20212;-85
2022/05/17 06:48:55;;;;;;;;;;;;;;;16.30;38.52;102007.73;1703512;83;21691;-85
2022/05/17 06:51:21;;;;;;;;;;;;;;;16.40;38.49;102013.70;1703184;84;20742;-85
2022/05/17 06:53:48;;;;;;;;;;;;;;;16.33;38.37;102014.02;1703432;84;21798;-84
2022/05/17 06:56:14;;;;;;;;;;;;;;;16.43;38.68;102016.43;1703214;83;21550;-85
2022/05/17 06:58:41;;;;;;;;;;;;;;;16.65;38.71;102013.79;1696054;83;20246;-84
2022/05/17 07:01:08;;;;;;;;;;;;;;;16.71;38.41;102015.67;1690568;84;20366;-84
2022/05/17 07:03:34;;;;;;;;;;;;;;;16.71;38.38;102015.67;1703271;83;20993;-85
2022/05/17 07:06:04;;;;;;;;;;;;;;;16.66;38.16;102026.64;1702959;84;23241;-85
2022/05/17 07:08:32;;;;;;;;;;;;;;;16.61;38.02;102016.34;1681919;84;21151;-85
2022/05/17 07:13:44;;;;;;;;;;;;;;;16.31;37.53;102025.45;1703412;84;20583;-85
2022/05/17 07:16:11;;;;;;;;;;;;;;;16.02;37.66;102025.71;1703816;84;20240;-85
2022/05/17 07:18:37;;;;;;;;;;;;;;;16.06;37.95;102031.55;1703484;83;21776;-85
2022/05/17 07:21:04;;;;;;;;;;;;;;;16.10;38.01;102025.88;1703211;83;20208;-85
2022/05/17 07:23:38;;;;;;;;;;;;;;;16.11;37.95;102029.91;1711791;82;20243;-84
2022/05/17 07:26:08;;;;;;;;;;;;;;;16.12;37.95;102034.78;1699811;83;20644;-85
2022/05/17 07:28:39;;;;;;;;;;;;;;;15.95;37.74;102031.73;1707001;83;20596;-85
2022/05/17 07:31:08;;;;;;;;;;;;;;;15.87;37.99;102029.34;1713514;83;21615;-83
2022/05/17 07:33:34;;;;;;;;;;;;;;;15.99;38.18;102034.95;1719130;82;20322;-83
2022/05/17 07:36:04;;;;;;;;;;;;;;;16.00;37.99;102028.77;1718798;83;20216;-83
2022/05/17 07:38:29;;;;;;;;;;;;;;;15.82;38.09;102037.21;1688158;83;20407;-83
2022/05/17 07:40:56;;;;;;;;;;;;;;;15.72;38.35;102036.03;1714794;83;20169;-83
2022/05/17 07:43:22;;;;;;;;;;;;;;;15.58;38.80;102038.80;1724428;82;21661;-83
2022/05/17 07:45:53;;;;;;;;;;;;;;;15.44;39.27;102037.54;1722277;83;20180;-83
2022/05/17 07:48:18;;;;;;;;;;;;;;;15.45;39.42;102036.70;1720136;82;20267;-83
2022/05/17 07:50:45;;;;;;;;;;;;;;;15.35;39.55;102045.74;1720494;83;20438;-83
2022/05/17 07:53:14;;;;;;;;;;;;;;;15.21;39.57;102048.45;1719977;82;20216;-83
2022/05/17 07:55:41;;;;;;;;;;;;;;;15.04;39.70;102049.31;1687434;84;21795;-83
2022/05/17 07:58:12;;;;;;;;;;;;;;;15.10;40.23;102052.12;1711732;83;20192;-84
2022/05/17 08:00:39;;;;;;;;;;;;;;;15.18;39.76;102052.33;1719652;83;20579;-84
2022/05/17 08:03:05;;;;;;;;;;;;;;;15.19;39.62;102062.10;1699740;83;20439;-83
2022/05/17 08:05:32;;;;;;;;;;;;;;;15.30;39.54;102054.44;1718572;83;20223;-84
2022/05/17 08:07:59;;;;;;;;;;;;;;;15.19;39.62;102054.58;1718964;83;21747;-84
2022/05/17 08:10:25;;;;;;;;;;;;;;;15.03;39.55;102049.27;1718527;83;20203;-84
2022/05/17 08:12:52;;;;;;;;;;;;;;;14.88;39.17;102054.61;1718888;83;20212;-84
2022/05/17 08:15:19;;;;;;;;;;;;;;;14.76;39.34;102060.47;1698610;83;20532;-84
2022/05/17 08:17:46;;;;;;;;;;;;;;;14.67;39.44;102056.22;1718979;83;20236;-83
2022/05/17 08:20:15;;;;;;;;;;;;;;;14.64;39.85;102061.86;1698724;83;22499;-84
2022/05/17 08:22:44;;;;;;;;;;;;;;;14.51;39.81;102061.92;1710588;82;20225;-83
2022/05/17 08:27:57;;;;;;;;;;;;;;;14.33;39.45;102063.13;1686428;84;20490;-84
2022/05/17 08:30:25;;;;;;;;;;;;;;;14.18;39.53;102067.97;1689197;84;20230;-84
2022/05/17 08:33:16;;;;;;;;;;;;;;;13.92;39.81;102068.02;1698553;84;23079;-84
2022/05/17 08:35:56;;;;;;;;;;;;;;;13.87;39.87;102071.37;1686859;84;20921;-84
2022/05/17 08:38:28;;;;;;;;;;;;;;;13.82;40.08;102066.38;1703217;84;20231;-84
2022/05/17 08:41:13;;;;;;;;;;;;;;;13.75;39.69;102066.58;1703214;84;20372;-84
2022/05/17 08:44:04;;;;;;;;;;;;;;;13.69;40.10;102063.74;1685628;84;20219;-84
2022/05/17 08:46:55;;;;;;;;;;;;;;;13.58;39.85;102065.59;1683466;83;21779;-84
2022/05/17 08:49:24;;;;;;;;;;;;;;;13.52;39.61;102079.94;1686331;83;20214;-84
2022/05/17 08:51:54;;;;;;;;;;;;;;;13.49;38.79;102084.22;1696765;84;20194;-84
2022/05/17 08:54:23;;;;;;;;;;;;;;;13.42;39.29;102081.81;1673014;84;20885;-85
2022/05/17 08:57:02;;;;;;;;;;;;;;;13.47;39.66;102084.59;1704723;84;20501;-82
2022/05/17 08:59:29;;;;;;;;;;;;;;;13.50;39.65;102079.42;1688273;84;21762;-85
2022/05/17 09:02:01;;;;;;;;;;;;;;;13.65;39.68;102079.05;1695639;84;20185;-85
2022/05/17 09:04:47;;;;;;;;;;;;;;;13.70;39.52;102078.35;1676744;84;20210;-85
2022/05/17 09:07:18;;;;;;;;;;;;;;;13.80;39.53;102076.47;1704983;84;21524;-85
2022/05/17 09:10:06;;;;;;;;;;;;;;;13.91;39.22;102090.06;1705810;83;20511;-83
2022/05/17 09:12:51;;;;;;;;;;;;;;;13.97;39.11;102083.64;1695695;83;21804;-84
2022/05/17 09:15:17;;;;;;;;;;;;;;;14.09;38.90;102087.53;1699463;84;20190;-83
2022/05/17 09:17:44;;;;;;;;;;;;;;;14.12;38.34;102087.64;1705875;83;20192;-83
2022/05/17 09:20:13;;;;;;;;;;;;;;;14.07;38.18;102094.53;1704684;83;20317;-83
2022/05/17 09:22:39;;;;;;;;;;;;;;;13.92;38.26;102090.95;1681105;84;20223;-83
2022/05/17 09:25:17;;;;;;;;;;;;;;;13.84;38.61;102097.76;1678725;83;20211;-84
2022/05/17 09:27:46;;;;;;;;;;;;;;;13.73;38.58;102097.39;1699939;84;20158;-84
2022/05/17 09:30:25;;;;;;;;;;;;;;;13.70;38.70;102091.58;1705404;83;20181;-84
2022/05/17 09:33:01;;;;;;;;;;;;;;;13.70;38.85;102096.88;1705382;83;20334;-84
2022/05/17 09:35:27;;;;;;;;;;;;;;;13.76;39.25;102094.42;1687255;83;20576;-84
2022/05/17 09:37:57;;;;;;;;;;;;;;;13.86;39.15;102090.77;1698176;84;21794;-83
2022/05/17 09:40:26;;;;;;;;;;;;;;;13.91;38.74;102094.03;1704947;84;20162;-83
2022/05/17 09:42:55;;;;;;;;;;;;;;;13.81;38.63;102099.86;1703747;83;20807;-83
2022/05/17 09:45:41;;;;;;;;;;;;;;;13.78;38.89;102095.80;1702936;83;21367;-83
2022/05/17 09:48:08;;;;;;;;;;;;;;;13.70;39.07;102091.58;1703376;83;20892;-83
2022/05/17 09:53:48;;;;;;;;;;;;;;;13.61;39.85;102106.71;1697822;83;20234;-83
2022/05/17 09:56:16;;;;;;;;;;;;;;;13.69;40.35;102116.66;1693236;84;20553;-83
2022/05/17 09:58:44;;;;;;;;;;;;;;;13.71;40.28;102099.98;1703368;83;21814;-83
2022/05/17 10:01:22;;;;;;;;;;;;;;;13.59;40.15;102105.77;1703488;84;20216;-84
2022/05/17 10:04:12;;;;;;;;;;;;;;;13.57;40.24;102103.89;1702709;84;21802;-83
2022/05/17 10:06:44;;;;;;;;;;;;;;;13.54;40.12;102109.98;1703556;84;20208;-83
2022/05/17 10:09:15;;;;;;;;;;;;;;;13.50;39.87;102108.52;1672499;85;20347;-83
2022/05/17 10:11:46;;;;;;;;;;;;;;;13.53;39.43;102114.82;1695151;84;20432;-84
2022/05/17 10:14:22;;;;;;;;;;;;;;;13.55;39.50;102113.12;1704768;84;20178;-85
2022/05/17 10:16:54;;;;;;;;;;;;;;;13.46;39.48;102111.87;1705224;83;22383;-85
2022/05/17 10:19:30;;;;;;;;;;;;;;;13.43;39.53;102113.11;1703499;84;20188;-84
2022/05/17 10:22:08;;;;;;;;;;;;;;;13.40;39.18;102117.84;1703036;84;20235;-84
2022/05/17 10:24:54;;;;;;;;;;;;;;;13.30;39.36;102106.05;1702353;83;20365;-84
2022/05/17 10:27:28;;;;;;;;;;;;;;;13.25;39.13;102106.70;1709054;83;20224;-84
2022/05/17 10:29:55;;;;;;;;;;;;;;;13.21;39.48;102110.98;1678066;83;21848;-84
2022/05/17 10:32:37;;;;;;;;;;;;;;;13.18;39.58;102110.45;1711103;83;20156;-84
2022/05/17 10:35:07;;;;;;;;;;;;;;;13.23;39.49;102116.81;1681698;83;20203;-85
2022/05/17 10:37:39;;;;;;;;;;;;;;;13.13;39.14;102113.78;1697937;83;20504;-84
2022/05/17 10:40:09;;;;;;;;;;;;;;;13.07;39.32;102128.11;1710723;83;20193;-84
2022/05/17 10:42:36;;;;;;;;;;;;;;;13.02;39.18;102117.34;1692968;83;21833;-84
2022/05/17 10:45:05;;;;;;;;;;;;;;;13.04;39.13;102126.23;1677999;85;20229;-84
2022/05/17 10:47:39;;;;;;;;;;;;;;;13.01;39.27;102130.98;1680184;83;21077;-84
2022/05/17 10:50:31;;;;;;;;;;;;;;;13.01;38.99;102129.67;1706231;83;21597;-84
2022/05/17 10:53:06;;;;;;;;;;;;;;;12.98;39.12;102126.01;1689008;83;20214;-84
2022/05/17 10:55:55;;;;;;;;;;;;;;;13.03;38.89;102121.37;1680286;83;21726;-84
2022/05/17 10:58:44;;;;;;;;;;;;;;;13.01;39.05;102117.77;1703546;83;20212;-84
2022/05/17 11:01:14;;;;;;;;;;;;;;;13.05;38.97;102124.50;1697921;83;20216;-84
2022/05/17 11:03:50;;;;;;;;;;;;;;;13.11;39.01;102114.15;1729181;82;20546;-84
2022/05/17 11:06:29;;;;;;;;;;;;;;;13.19;39.02;102116.23;1731123;82;20214;-84
2022/05/17 11:09:16;;;;;;;;;;;;;;;13.24;38.68;102125.64;1702958;82;21791;-85
2022/05/17 11:12:09;;;;;;;;;;;;;;;13.23;38.68;102129.11;1721847;82;20222;-84
2022/05/17 11:14:59;;;;;;;;;;;;;;;13.19;38.55;102120.20;1730155;82;20217;-83
2022/05/17 11:17:51;;;;;;;;;;;;;;;13.12;38.61;102136.68;1731237;82;20476;-84
2022/05/17 11:20:39;;;;;;;;;;;;;;;13.12;38.59;102129.14;1729657;82;20230;-83
2022/05/17 11:23:25;;;;;;;;;;;;;;;13.11;38.29;102126.05;1708830;82;22383;-83
2022/05/17 11:26:20;;;;;;;;;;;;;;;13.13;38.58;102125.67;1725968;82;20211;-83
2022/05/17 11:29:06;;;;;;;;;;;;;;;13.15;38.27;102135.45;1733140;82;20155;-84
2022/05/17 11:31:56;;;;;;;;;;;;;;;13.14;38.45;102131.02;1737614;81;20513;-84
2022/05/17 11:34:26;;;;;;;;;;;;;;;13.22;38.22;102141.45;1689560;82;20201;-84
2022/05/17 11:36:56;;;;;;;;;;;;;;;13.21;38.37;102149.31;1733041;81;21819;-83
2022/05/17 11:39:37;;;;;;;;;;;;;;;13.22;37.68;102137.91;1731825;82;20378;-83
2022/05/17 11:42:12;;;;;;;;;;;;;;;13.25;38.17;102140.68;1720349;81;20196;-82
2022/05/17 11:44:46;;;;;;;;;;;;;;;13.21;37.74;102140.06;1720024;82;21227;-85
2022/05/17 11:47:31;;;;;;;;;;;;;;;13.20;37.74;102141.81;1731644;81;20231;-83
2022/05/17 11:50:18;;;;;;;;;;;;;;;13.30;37.52;102143.08;1716762;83;23063;-84
2022/05/17 11:52:46;;;;;;;;;;;;;;;13.33;37.12;102137.91;1641059;86;20266;-84
2022/05/17 11:55:17;;;;;;;;;;;;;;;13.36;37.15;102145.97;1641089;86;20290;-82
2022/05/17 11:57:50;;;;;;;;;;;;;;;13.39;36.98;102140.77;1619893;87;20426;-83
2022/05/17 12:00:43;;;;;;;;;;;;;;;13.40;36.61;102140.33;1621598;87;20262;-83
2022/05/17 12:03:00;;;;;;;;;;;;;;;13.38;36.41;102135.02;1647901;85;20245;-84
2022/05/17 12:05:47;;;;;;;;;;;;;;;13.38;36.33;102136.73;1651028;85;21269;-84
2022/05/17 12:08:28;;;;;;;;;;;;;;;13.41;36.41;102138.18;1650981;85;20509;-83
2022/05/17 12:11:14;;;;;;;;;;;;;;;13.46;36.14;102138.33;1650623;85;20380;-83
2022/05/17 12:14:01;;;;;;;;;;;;;;;13.47;36.21;102141.47;1628087;87;20857;-84
2022/05/17 12:16:29;;;;;;;;;;;;;;;13.43;36.04;102144.85;1618051;86;22410;-83
2022/05/17 12:19:01;;;;;;;;;;;;;;;13.36;35.75;102140.67;1612384;86;20254;-83
2022/05/17 12:21:48;;;;;;;;;;;;;;;13.33;35.79;102141.87;1633098;86;20227;-83
2022/05/17 12:24:25;;;;;;;;;;;;;;;13.37;36.03;102144.21;1630894;86;20398;-84
2022/05/17 12:27:28;;;;;;;;;;;;;;;13.39;35.89;102152.66;1621003;87;20203;-83
2022/05/17 12:33:04;;;;;;;;;;;;;;;13.36;35.63;102152.58;1696532;84;20256;-83
2022/05/17 12:35:31;;;;;;;;;;;;;;;13.33;35.46;102140.55;1701199;83;20228;-84
2022/05/17 12:37:57;;;;;;;;;;;;;;;13.32;35.73;102141.38;1681306;84;21319;-82
2022/05/17 12:43:12;;;;;;;;;;;;;;;13.43;35.80;102136.48;1696041;83;21784;-85
2022/05/17 12:45:44;;;;;;;;;;;;;;;13.37;36.07;102144.21;1685535;84;20209;-83
2022/05/17 12:48:26;;;;;;;;;;;;;;;13.32;35.85;102144.46;1679977;83;20193;-83
2022/05/17 12:50:55;;;;;;;;;;;;;;;13.29;35.92;102139.94;1685322;84;20385;-84
2022/05/17 12:53:25;;;;;;;;;;;;;;;13.24;35.93;102148.12;1697114;84;20209;-83
2022/05/17 12:56:01;;;;;;;;;;;;;;;13.22;35.80;102141.87;1700441;83;21174;-84
2022/05/17 12:58:28;;;;;;;;;;;;;;;13.19;35.92;102147.97;1700423;83;21227;-84
2022/05/17 13:00:55;;;;;;;;;;;;;;;13.22;36.27;102141.45;1700628;83;20220;-84
2022/05/17 13:03:24;;;;;;;;;;;;;;;13.27;36.23;102150.89;1700514;83;20340;-84
2022/05/17 13:05:53;;;;;;;;;;;;;;;13.28;36.17;102146.06;1702262;83;20161;-84
2022/05/17 13:08:22;;;;;;;;;;;;;;;13.20;36.30;102148.86;1701710;84;22541;-84
2022/05/17 13:11:11;;;;;;;;;;;;;;;13.17;36.25;102157.55;1683263;84;20208;-84
2022/05/17 13:13:39;;;;;;;;;;;;;;;13.18;36.31;102156.72;1702133;84;20174;-84
2022/05/17 13:16:21;;;;;;;;;;;;;;;13.15;36.50;102161.89;1689349;83;20346;-84
2022/05/17 13:18:53;;;;;;;;;;;;;;;13.12;36.71;102160.47;1695666;84;20208;-83